sensor_id;sensor_type;location;lat;lon;timestamp;pressure;altitude;pressure_sealevel;temperature;humidity
66486;BME280;53303;47.476;8.084;2023-06-19T00:00:06;95104.97;;;24.50;44.31
66486;BME280;53303;47.476;8.084;2023-06-19T00:02:41;95109.63;;;24.47;44.63
66486;BME280;53303;47.476;8.084;2023-06-19T00:05:08;95111.50;;;24.52;44.54
66486;BME280;53303;47.476;8.084;2023-06-19T00:07:36;95058.94;;;24.14;44.75
66486;BME280;53303;47.476;8.084;2023-06-19T00:10:05;95110.75;;;24.52;45.22
66486;BME280;53303;47.476;8.084;2023-06-19T00:12:33;95090.91;;;24.35;45.36
66486;BME280;53303;47.476;8.084;2023-06-19T00:15:01;95095.59;;;24.40;45.41
66486;BME280;53303;47.476;8.084;2023-06-19T00:17:29;95086.19;;;24.29;45.77
66486;BME280;53303;47.476;8.084;2023-06-19T00:19:56;95113.88;;;24.48;45.93
66486;BME280;53303;47.476;8.084;2023-06-19T00:22:24;95099.69;;;24.39;46.29
66486;BME280;53303;47.476;8.084;2023-06-19T00:24:51;95092.41;;;24.36;46.06
66486;BME280;53303;47.476;8.084;2023-06-19T00:27:17;95085.13;;;24.32;46.26
66486;BME280;53303;47.476;8.084;2023-06-19T00:29:47;95098.38;;;24.40;46.45
66486;BME280;53303;47.476;8.084;2023-06-19T00:32:13;95097.25;;;24.35;46.69
66486;BME280;53303;47.476;8.084;2023-06-19T00:34:38;95131.03;;;24.52;46.58
66486;BME280;53303;47.476;8.084;2023-06-19T00:37:06;95103.16;;;24.31;46.81
66486;BME280;53303;47.476;8.084;2023-06-19T00:39:32;95123.06;;;24.36;47.00
66486;BME280;53303;47.476;8.084;2023-06-19T00:41:57;95161.69;;;24.52;47.31
66486;BME280;53303;47.476;8.084;2023-06-19T00:44:28;95153.34;;;24.31;47.13
66486;BME280;53303;47.476;8.084;2023-06-19T00:46:57;95181.56;;;24.49;47.36
66486;BME280;53303;47.476;8.084;2023-06-19T00:49:26;95207.88;;;24.54;47.29
66486;BME280;53303;47.476;8.084;2023-06-19T00:51:55;95200.63;;;24.37;47.63
66486;BME280;53303;47.476;8.084;2023-06-19T00:54:23;95219.75;;;24.54;47.58
66486;BME280;53303;47.476;8.084;2023-06-19T00:56:51;95190.66;;;24.28;47.41
66486;BME280;53303;47.476;8.084;2023-06-19T00:59:22;95216.66;;;24.44;47.49
66486;BME280;53303;47.476;8.084;2023-06-19T01:01:50;95227.28;;;24.46;47.46
66486;BME280;53303;47.476;8.084;2023-06-19T01:04:18;95207.53;;;24.23;47.47
66486;BME280;53303;47.476;8.084;2023-06-19T01:09:27;95178.75;;;24.07;47.15
66486;BME280;53303;47.476;8.084;2023-06-19T01:12:04;95108.00;;;23.49;46.87
66486;BME280;53303;47.476;8.084;2023-06-19T01:17:31;95137.88;;;23.62;46.82
66486;BME280;53303;47.476;8.084;2023-06-19T01:20:00;95198.69;;;23.98;46.82
66486;BME280;53303;47.476;8.084;2023-06-19T01:22:30;95124.19;;;23.50;46.76
66486;BME280;53303;47.476;8.084;2023-06-19T01:24:55;95212.84;;;24.00;46.60
66486;BME280;53303;47.476;8.084;2023-06-19T01:27:30;95180.28;;;23.81;46.40
66486;BME280;53303;47.476;8.084;2023-06-19T01:29:59;95231.03;;;24.01;46.69
66486;BME280;53303;47.476;8.084;2023-06-19T01:32:53;95284.00;;;24.48;46.54
66486;BME280;53303;47.476;8.084;2023-06-19T01:35:27;95225.16;;;24.04;46.45
66486;BME280;53303;47.476;8.084;2023-06-19T01:37:56;95201.72;;;23.86;46.51
66486;BME280;53303;47.476;8.084;2023-06-19T01:40:22;95171.72;;;23.66;46.40
66486;BME280;53303;47.476;8.084;2023-06-19T01:42:59;95251.81;;;24.26;46.15
66486;BME280;53303;47.476;8.084;2023-06-19T01:45:32;95236.28;;;24.18;46.21
66486;BME280;53303;47.476;8.084;2023-06-19T01:48:01;95200.97;;;23.86;46.28
66486;BME280;53303;47.476;8.084;2023-06-19T01:50:57;95280.22;;;24.25;46.01
66486;BME280;53303;47.476;8.084;2023-06-19T01:53:22;95214.56;;;23.89;46.25
66486;BME280;53303;47.476;8.084;2023-06-19T01:55:47;95240.66;;;24.13;45.95
66486;BME280;53303;47.476;8.084;2023-06-19T01:58:16;95210.50;;;23.90;46.15
66486;BME280;53303;47.476;8.084;2023-06-19T02:00:41;95286.28;;;24.50;45.85
66486;BME280;53303;47.476;8.084;2023-06-19T02:03:09;95268.91;;;24.44;45.87
66486;BME280;53303;47.476;8.084;2023-06-19T02:05:35;95275.44;;;24.46;46.14
66486;BME280;53303;47.476;8.084;2023-06-19T02:08:04;95188.09;;;23.83;46.10
66486;BME280;53303;47.476;8.084;2023-06-19T02:10:33;95191.88;;;23.85;46.09
66486;BME280;53303;47.476;8.084;2023-06-19T02:13:07;95127.63;;;23.43;45.73
66486;BME280;53303;47.476;8.084;2023-06-19T02:15:35;95131.78;;;23.50;45.89
66486;BME280;53303;47.476;8.084;2023-06-19T02:18:11;95122.91;;;23.38;45.96
66486;BME280;53303;47.476;8.084;2023-06-19T02:20:39;95276.38;;;24.49;46.10
66486;BME280;53303;47.476;8.084;2023-06-19T02:23:04;95276.38;;;24.49;45.94
66486;BME280;53303;47.476;8.084;2023-06-19T02:25:32;95246.44;;;24.28;46.09
66486;BME280;53303;47.476;8.084;2023-06-19T02:28:00;95133.94;;;23.57;45.97
66486;BME280;53303;47.476;8.084;2023-06-19T02:30:28;95275.66;;;24.48;45.91
66486;BME280;53303;47.476;8.084;2023-06-19T02:32:54;95123.25;;;23.48;46.08
66486;BME280;53303;47.476;8.084;2023-06-19T02:35:19;95198.47;;;23.95;45.91
66486;BME280;53303;47.476;8.084;2023-06-19T02:37:47;95217.97;;;23.95;45.99
66486;BME280;53303;47.476;8.084;2023-06-19T02:40:13;95196.34;;;23.88;46.30
66486;BME280;53303;47.476;8.084;2023-06-19T02:42:42;95189.38;;;23.68;46.23
66486;BME280;53303;47.476;8.084;2023-06-19T02:45:08;95227.31;;;23.98;46.27
66486;BME280;53303;47.476;8.084;2023-06-19T02:47:33;95166.16;;;23.52;46.40
66486;BME280;53303;47.476;8.084;2023-06-19T02:50:00;95264.03;;;24.23;46.42
66486;BME280;53303;47.476;8.084;2023-06-19T02:52:27;95219.69;;;23.99;46.07
66486;BME280;53303;47.476;8.084;2023-06-19T02:54:53;95173.53;;;23.63;46.34
66486;BME280;53303;47.476;8.084;2023-06-19T02:57:19;95176.66;;;23.73;46.37
66486;BME280;53303;47.476;8.084;2023-06-19T02:59:46;95184.47;;;23.74;46.36
66486;BME280;53303;47.476;8.084;2023-06-19T03:02:15;95301.28;;;24.47;46.28
66486;BME280;53303;47.476;8.084;2023-06-19T03:04:40;95202.03;;;23.83;46.52
66486;BME280;53303;47.476;8.084;2023-06-19T03:07:06;95175.38;;;23.61;46.33
66486;BME280;53303;47.476;8.084;2023-06-19T03:09:34;95217.78;;;23.93;46.57
66486;BME280;53303;47.476;8.084;2023-06-19T03:11:59;95247.84;;;24.22;46.61
66486;BME280;53303;47.476;8.084;2023-06-19T03:14:25;95195.94;;;23.84;46.57
66486;BME280;53303;47.476;8.084;2023-06-19T03:16:50;95227.41;;;24.06;46.29
66486;BME280;53303;47.476;8.084;2023-06-19T03:19:16;95147.00;;;23.49;46.39
66486;BME280;53303;47.476;8.084;2023-06-19T03:21:44;95249.88;;;24.21;46.64
66486;BME280;53303;47.476;8.084;2023-06-19T03:24:10;95239.41;;;24.01;46.78
66486;BME280;53303;47.476;8.084;2023-06-19T03:26:35;95192.28;;;23.63;47.11
66486;BME280;53303;47.476;8.084;2023-06-19T03:29:00;95272.19;;;24.21;47.06
66486;BME280;53303;47.476;8.084;2023-06-19T03:31:26;95277.44;;;24.25;47.14
66486;BME280;53303;47.476;8.084;2023-06-19T03:33:51;95280.63;;;24.29;47.28
66486;BME280;53303;47.476;8.084;2023-06-19T03:36:17;95255.69;;;24.10;47.12
66486;BME280;53303;47.476;8.084;2023-06-19T03:38:45;95259.66;;;24.14;47.23
66486;BME280;53303;47.476;8.084;2023-06-19T03:41:13;95257.19;;;24.11;47.29
66486;BME280;53303;47.476;8.084;2023-06-19T03:43:38;95312.97;;;24.45;47.50
66486;BME280;53303;47.476;8.084;2023-06-19T03:46:09;95286.34;;;24.23;47.72
66486;BME280;53303;47.476;8.084;2023-06-19T03:48:35;95318.56;;;24.45;47.52
66486;BME280;53303;47.476;8.084;2023-06-19T03:51:00;95302.47;;;24.38;47.52
66486;BME280;53303;47.476;8.084;2023-06-19T03:53:26;95317.06;;;24.44;47.79
66486;BME280;53303;47.476;8.084;2023-06-19T03:55:56;95300.88;;;24.29;47.77
66486;BME280;53303;47.476;8.084;2023-06-19T03:58:26;95282.59;;;24.21;48.25
66486;BME280;53303;47.476;8.084;2023-06-19T04:00:51;95309.25;;;24.43;47.99
66486;BME280;53303;47.476;8.084;2023-06-19T04:03:17;95273.78;;;24.17;48.26
66486;BME280;53303;47.476;8.084;2023-06-19T04:05:42;95286.53;;;24.25;48.54
66486;BME280;53303;47.476;8.084;2023-06-19T04:08:08;95284.50;;;24.26;48.58
66486;BME280;53303;47.476;8.084;2023-06-19T04:10:38;95271.97;;;24.19;48.73
66486;BME280;53303;47.476;8.084;2023-06-19T04:13:06;95232.34;;;23.86;48.70
66486;BME280;53303;47.476;8.084;2023-06-19T04:15:36;95315.22;;;24.47;48.63
66486;BME280;53303;47.476;8.084;2023-06-19T04:18:02;95293.84;;;24.28;48.71
66486;BME280;53303;47.476;8.084;2023-06-19T04:20:28;95308.16;;;24.46;48.88
66486;BME280;53303;47.476;8.084;2023-06-19T04:22:56;95296.69;;;24.36;48.76
66486;BME280;53303;47.476;8.084;2023-06-19T04:25:21;95288.78;;;24.27;48.88
66486;BME280;53303;47.476;8.084;2023-06-19T04:27:49;95288.59;;;24.25;49.02
66486;BME280;53303;47.476;8.084;2023-06-19T04:30:14;95285.06;;;24.24;49.29
66486;BME280;53303;47.476;8.084;2023-06-19T04:32:40;95279.81;;;24.21;49.25
66486;BME280;53303;47.476;8.084;2023-06-19T04:35:08;95260.72;;;24.11;49.16
66486;BME280;53303;47.476;8.084;2023-06-19T04:37:34;95286.41;;;24.31;49.55
66486;BME280;53303;47.476;8.084;2023-06-19T04:40:04;95279.34;;;24.30;49.24
66486;BME280;53303;47.476;8.084;2023-06-19T04:42:32;95255.16;;;24.11;49.23
66486;BME280;53303;47.476;8.084;2023-06-19T04:45:00;95262.31;;;24.20;49.06
66486;BME280;53303;47.476;8.084;2023-06-19T04:47:25;95277.09;;;24.28;49.20
66486;BME280;53303;47.476;8.084;2023-06-19T04:49:51;95260.69;;;24.25;49.52
66486;BME280;53303;47.476;8.084;2023-06-19T04:52:16;95278.38;;;24.27;49.65
66486;BME280;53303;47.476;8.084;2023-06-19T04:54:45;95273.97;;;24.32;50.38
66486;BME280;53303;47.476;8.084;2023-06-19T04:57:13;95284.28;;;24.37;50.49
66486;BME280;53303;47.476;8.084;2023-06-19T04:59:42;95268.31;;;24.24;50.40
66486;BME280;53303;47.476;8.084;2023-06-19T05:02:10;95269.94;;;24.20;50.41
66486;BME280;53303;47.476;8.084;2023-06-19T05:04:35;95250.66;;;24.08;49.72
66486;BME280;53303;47.476;8.084;2023-06-19T05:07:03;95246.28;;;24.00;49.50
66486;BME280;53303;47.476;8.084;2023-06-19T05:09:29;95235.34;;;23.88;49.66
66486;BME280;53303;47.476;8.084;2023-06-19T05:11:59;95289.44;;;24.20;49.61
66486;BME280;53303;47.476;8.084;2023-06-19T05:14:27;95257.44;;;24.00;49.77
66486;BME280;53303;47.476;8.084;2023-06-19T05:16:53;95267.47;;;24.03;49.91
66486;BME280;53303;47.476;8.084;2023-06-19T05:19:20;95251.97;;;23.94;50.39
66486;BME280;53303;47.476;8.084;2023-06-19T05:21:46;95263.44;;;23.90;50.05
66486;BME280;53303;47.476;8.084;2023-06-19T05:24:14;95291.81;;;24.02;49.81
66486;BME280;53303;47.476;8.084;2023-06-19T05:26:39;95262.81;;;23.84;49.96
66486;BME280;53303;47.476;8.084;2023-06-19T05:29:07;95243.28;;;23.71;49.97
66486;BME280;53303;47.476;8.084;2023-06-19T05:31:36;95274.38;;;23.88;50.06
66486;BME280;53303;47.476;8.084;2023-06-19T05:34:09;95273.50;;;23.93;49.94
66486;BME280;53303;47.476;8.084;2023-06-19T05:36:39;95243.28;;;23.71;49.66
66486;BME280;53303;47.476;8.084;2023-06-19T05:39:06;95275.88;;;23.89;49.48
66486;BME280;53303;47.476;8.084;2023-06-19T05:41:34;95281.97;;;23.88;49.69
66486;BME280;53303;47.476;8.084;2023-06-19T05:44:02;95288.94;;;23.81;49.58
66486;BME280;53303;47.476;8.084;2023-06-19T05:46:32;95265.97;;;23.62;49.52
66486;BME280;53303;47.476;8.084;2023-06-19T05:48:57;95271.69;;;23.69;49.55
66486;BME280;53303;47.476;8.084;2023-06-19T05:51:25;95273.94;;;23.71;49.81
66486;BME280;53303;47.476;8.084;2023-06-19T05:53:51;95274.03;;;23.65;49.82
66486;BME280;53303;47.476;8.084;2023-06-19T05:56:17;95264.09;;;23.56;49.93
66486;BME280;53303;47.476;8.084;2023-06-19T05:58:47;95247.78;;;23.47;50.11
66486;BME280;53303;47.476;8.084;2023-06-19T06:01:15;95283.16;;;23.66;50.12
66486;BME280;53303;47.476;8.084;2023-06-19T06:03:43;95288.94;;;23.68;49.98
66486;BME280;53303;47.476;8.084;2023-06-19T06:06:15;95268.03;;;23.61;49.85
66486;BME280;53303;47.476;8.084;2023-06-19T06:08:43;95252.38;;;23.45;49.98
66486;BME280;53303;47.476;8.084;2023-06-19T06:11:11;95283.03;;;23.71;49.97
66486;BME280;53303;47.476;8.084;2023-06-19T06:13:36;95277.13;;;23.62;49.75
66486;BME280;53303;47.476;8.084;2023-06-19T06:16:02;95290.84;;;23.73;50.01
66486;BME280;53303;47.476;8.084;2023-06-19T06:18:29;95263.41;;;23.50;49.94
66486;BME280;53303;47.476;8.084;2023-06-19T06:20:55;95296.53;;;23.67;50.10
66486;BME280;53303;47.476;8.084;2023-06-19T06:23:20;95275.63;;;23.61;50.15
66486;BME280;53303;47.476;8.084;2023-06-19T06:25:46;95253.03;;;23.51;50.01
66486;BME280;53303;47.476;8.084;2023-06-19T06:28:11;95248.63;;;23.42;50.32
66486;BME280;53303;47.476;8.084;2023-06-19T06:30:42;95285.28;;;23.60;50.28
66486;BME280;53303;47.476;8.084;2023-06-19T06:33:12;95284.09;;;23.68;50.27
66486;BME280;53303;47.476;8.084;2023-06-19T06:35:38;95276.69;;;23.57;50.21
66486;BME280;53303;47.476;8.084;2023-06-19T06:38:06;95259.56;;;23.53;49.91
66486;BME280;53303;47.476;8.084;2023-06-19T06:40:32;95273.59;;;23.61;49.82
66486;BME280;53303;47.476;8.084;2023-06-19T06:42:57;95254.66;;;23.46;49.84
66486;BME280;53303;47.476;8.084;2023-06-19T06:45:22;95257.63;;;23.48;49.95
66486;BME280;53303;47.476;8.084;2023-06-19T06:47:48;95260.63;;;23.50;49.69
66486;BME280;53303;47.476;8.084;2023-06-19T06:50:13;95271.88;;;23.58;49.90
66486;BME280;53303;47.476;8.084;2023-06-19T06:52:39;95278.22;;;23.59;50.20
66486;BME280;53303;47.476;8.084;2023-06-19T06:55:06;95249.81;;;23.33;49.84
66486;BME280;53303;47.476;8.084;2023-06-19T06:57:32;95284.53;;;23.59;50.02
66486;BME280;53303;47.476;8.084;2023-06-19T06:59:57;95295.78;;;23.67;50.12
66486;BME280;53303;47.476;8.084;2023-06-19T07:02:23;95271.03;;;23.50;50.04
66486;BME280;53303;47.476;8.084;2023-06-19T07:04:49;95266.19;;;23.50;50.06
66486;BME280;53303;47.476;8.084;2023-06-19T07:07:14;95260.63;;;23.50;50.33
66486;BME280;53303;47.476;8.084;2023-06-19T07:09:40;95280.34;;;23.66;50.19
66486;BME280;53303;47.476;8.084;2023-06-19T07:12:08;95246.72;;;23.50;50.51
66486;BME280;53303;47.476;8.084;2023-06-19T07:14:36;95272.41;;;23.70;50.51
66486;BME280;53303;47.476;8.084;2023-06-19T07:17:04;95281.84;;;23.67;50.66
66486;BME280;53303;47.476;8.084;2023-06-19T07:19:34;95231.19;;;23.42;50.64
66486;BME280;53303;47.476;8.084;2023-06-19T07:21:59;95258.94;;;23.61;50.51
66486;BME280;53303;47.476;8.084;2023-06-19T07:24:27;95243.59;;;23.54;50.62
66486;BME280;53303;47.476;8.084;2023-06-19T07:26:55;95279.94;;;23.75;50.42
66486;BME280;53303;47.476;8.084;2023-06-19T07:29:21;95270.59;;;23.72;50.61
66486;BME280;53303;47.476;8.084;2023-06-19T07:31:49;95251.63;;;23.57;50.52
66486;BME280;53303;47.476;8.084;2023-06-19T07:34:17;95276.41;;;23.74;50.27
66486;BME280;53303;47.476;8.084;2023-06-19T07:36:45;95256.03;;;23.66;50.25
66486;BME280;53303;47.476;8.084;2023-06-19T07:39:10;95233.22;;;23.54;50.28
66486;BME280;53303;47.476;8.084;2023-06-19T07:41:36;95235.34;;;23.62;50.25
66486;BME280;53303;47.476;8.084;2023-06-19T07:44:04;95260.09;;;23.79;49.91
66486;BME280;53303;47.476;8.084;2023-06-19T07:46:29;95265.16;;;23.80;49.80
66486;BME280;53303;47.476;8.084;2023-06-19T07:48:55;95244.88;;;23.66;49.69
66486;BME280;53303;47.476;8.084;2023-06-19T07:51:22;95239.44;;;23.61;49.53
66486;BME280;53303;47.476;8.084;2023-06-19T07:53:48;95268.78;;;23.88;49.30
66486;BME280;53303;47.476;8.084;2023-06-19T07:56:18;95265.06;;;23.86;48.91
66486;BME280;53303;47.476;8.084;2023-06-19T07:58:45;95250.75;;;23.76;49.19
66486;BME280;53303;47.476;8.084;2023-06-19T08:01:12;95263.66;;;23.92;49.01
66486;BME280;53303;47.476;8.084;2023-06-19T08:03:37;95240.19;;;23.74;48.91
66486;BME280;53303;47.476;8.084;2023-06-19T08:06:03;95250.78;;;23.89;49.13
66486;BME280;53303;47.476;8.084;2023-06-19T08:08:28;95230.84;;;23.72;48.89
66486;BME280;53303;47.476;8.084;2023-06-19T08:10:56;95248.53;;;23.88;49.02
66486;BME280;53303;47.476;8.084;2023-06-19T08:13:21;95270.38;;;23.97;48.68
66486;BME280;53303;47.476;8.084;2023-06-19T08:15:48;95260.53;;;23.96;48.98
66486;BME280;53303;47.476;8.084;2023-06-19T08:18:16;95204.72;;;23.62;49.01
66486;BME280;53303;47.476;8.084;2023-06-19T08:20:46;95236.44;;;23.85;49.19
66486;BME280;53303;47.476;8.084;2023-06-19T08:23:12;95241.91;;;23.91;48.92
66486;BME280;53303;47.476;8.084;2023-06-19T08:25:37;95255.38;;;24.00;48.84
66486;BME280;53303;47.476;8.084;2023-06-19T08:28:05;95232.97;;;23.79;49.24
66486;BME280;53303;47.476;8.084;2023-06-19T08:30:30;95260.44;;;24.02;49.09
66486;BME280;53303;47.476;8.084;2023-06-19T08:32:55;95233.22;;;23.81;48.94
66486;BME280;53303;47.476;8.084;2023-06-19T08:35:21;95255.19;;;23.98;49.13
66486;BME280;53303;47.476;8.084;2023-06-19T08:37:48;95229.38;;;23.84;49.08
66486;BME280;53303;47.476;8.084;2023-06-19T08:40:19;95264.38;;;24.06;49.35
66486;BME280;53303;47.476;8.084;2023-06-19T08:42:50;95214.00;;;23.77;49.03
66486;BME280;53303;47.476;8.084;2023-06-19T08:45:17;95122.59;;;23.15;49.01
66486;BME280;53303;47.476;8.084;2023-06-19T08:47:49;95219.53;;;23.83;49.01
66486;BME280;53303;47.476;8.084;2023-06-19T08:50:15;95110.84;;;23.09;48.79
66486;BME280;53303;47.476;8.084;2023-06-19T08:52:41;95227.44;;;23.92;48.65
66486;BME280;53303;47.476;8.084;2023-06-19T08:55:09;95257.19;;;24.11;48.87
66486;BME280;53303;47.476;8.084;2023-06-19T08:57:37;95255.16;;;24.11;48.46
66486;BME280;53303;47.476;8.084;2023-06-19T09:00:04;95232.03;;;24.03;48.54
66486;BME280;53303;47.476;8.084;2023-06-19T09:02:42;95244.00;;;24.11;48.48
66486;BME280;53303;47.476;8.084;2023-06-19T09:05:16;95203.22;;;23.87;48.66
66486;BME280;53303;47.476;8.084;2023-06-19T09:07:43;95241.75;;;24.10;48.37
66486;BME280;53303;47.476;8.084;2023-06-19T09:10:18;95214.78;;;23.91;48.26
66486;BME280;53303;47.476;8.084;2023-06-19T09:12:55;95240.66;;;24.13;48.63
66486;BME280;53303;47.476;8.084;2023-06-19T09:15:21;95228.06;;;23.99;48.57
66486;BME280;53303;47.476;8.084;2023-06-19T09:18:01;95252.03;;;24.15;48.70
66486;BME280;53303;47.476;8.084;2023-06-19T09:20:29;95232.97;;;24.06;48.82
66486;BME280;53303;47.476;8.084;2023-06-19T09:22:58;95215.19;;;23.95;48.36
66486;BME280;53303;47.476;8.084;2023-06-19T09:25:26;95226.13;;;24.07;48.11
66486;BME280;53303;47.476;8.084;2023-06-19T09:27:55;95227.72;;;24.16;48.32
66486;BME280;53303;47.476;8.084;2023-06-19T09:30:23;95236.06;;;24.16;48.29
66486;BME280;53303;47.476;8.084;2023-06-19T09:32:49;95237.22;;;24.20;48.35
66486;BME280;53303;47.476;8.084;2023-06-19T09:35:16;95219.44;;;24.10;48.53
66486;BME280;53303;47.476;8.084;2023-06-19T09:37:43;95219.44;;;24.10;48.21
66486;BME280;53303;47.476;8.084;2023-06-19T09:40:10;95211.09;;;24.10;48.30
66486;BME280;53303;47.476;8.084;2023-06-19T09:42:43;95228.84;;;24.20;48.43
66486;BME280;53303;47.476;8.084;2023-06-19T09:45:11;95225.13;;;24.18;48.37
66486;BME280;53303;47.476;8.084;2023-06-19T09:47:39;95223.50;;;24.22;48.16
66486;BME280;53303;47.476;8.084;2023-06-19T09:50:10;95203.06;;;24.06;48.30
66486;BME280;53303;47.476;8.084;2023-06-19T09:52:38;95225.75;;;24.24;48.46
66486;BME280;53303;47.476;8.084;2023-06-19T09:55:06;95211.59;;;24.22;48.09
66486;BME280;53303;47.476;8.084;2023-06-19T09:57:33;95187.72;;;24.13;48.18
66486;BME280;53303;47.476;8.084;2023-06-19T10:00:05;95201.75;;;24.21;48.23
66486;BME280;53303;47.476;8.084;2023-06-19T10:02:50;95194.06;;;24.13;48.11
66486;BME280;53303;47.476;8.084;2023-06-19T10:05:31;95191.81;;;24.12;48.10
66486;BME280;53303;47.476;8.084;2023-06-19T10:07:59;95176.91;;;24.09;48.26
66486;BME280;53303;47.476;8.084;2023-06-19T10:10:27;95202.09;;;24.17;48.08
66486;BME280;53303;47.476;8.084;2023-06-19T10:12:59;95205.16;;;24.27;48.03
66486;BME280;53303;47.476;8.084;2023-06-19T10:15:26;95200.31;;;24.27;47.91
66486;BME280;53303;47.476;8.084;2023-06-19T10:20:29;95201.81;;;24.28;48.06
66486;BME280;53303;47.476;8.084;2023-06-19T10:23:18;95157.84;;;24.00;48.10
66486;BME280;53303;47.476;8.084;2023-06-19T10:26:01;95169.59;;;24.06;48.25
66486;BME280;53303;47.476;8.084;2023-06-19T10:28:31;95187.88;;;24.28;48.08
66486;BME280;53303;47.476;8.084;2023-06-19T10:31:05;95192.91;;;24.30;47.87
66486;BME280;53303;47.476;8.084;2023-06-19T10:33:35;95197.19;;;24.31;47.94
66486;BME280;53303;47.476;8.084;2023-06-19T10:36:16;95191.41;;;24.29;47.76
66486;BME280;53303;47.476;8.084;2023-06-19T10:38:42;95191.22;;;24.27;47.82
66486;BME280;53303;47.476;8.084;2023-06-19T10:41:23;95181.00;;;24.29;47.82
66486;BME280;53303;47.476;8.084;2023-06-19T10:44:03;95174.28;;;24.25;47.96
66486;BME280;53303;47.476;8.084;2023-06-19T10:46:32;95157.69;;;24.19;47.83
66486;BME280;53303;47.476;8.084;2023-06-19T10:48:59;95138.00;;;24.04;47.90
66486;BME280;53303;47.476;8.084;2023-06-19T10:51:28;95156.03;;;24.24;48.05
66486;BME280;53303;47.476;8.084;2023-06-19T10:53:57;95154.03;;;24.24;47.74
66486;BME280;53303;47.476;8.084;2023-06-19T10:56:26;95166.53;;;24.31;47.74
66486;BME280;53303;47.476;8.084;2023-06-19T11:01:35;95170.47;;;24.36;48.10
66486;BME280;53303;47.476;8.084;2023-06-19T11:04:05;95160.00;;;24.28;47.84
66486;BME280;53303;47.476;8.084;2023-06-19T11:06:34;95149.19;;;24.25;47.71
66486;BME280;53303;47.476;8.084;2023-06-19T11:09:02;95170.69;;;24.38;47.50
66486;BME280;53303;47.476;8.084;2023-06-19T11:11:40;95167.16;;;24.37;47.77
66486;BME280;53303;47.476;8.084;2023-06-19T11:14:09;95136.66;;;24.18;47.50
66486;BME280;53303;47.476;8.084;2023-06-19T11:16:39;95146.25;;;24.30;47.54
66486;BME280;53303;47.476;8.084;2023-06-19T11:19:08;95115.38;;;24.07;47.81
66486;BME280;53303;47.476;8.084;2023-06-19T11:21:36;95151.50;;;24.34;47.61
66486;BME280;53303;47.476;8.084;2023-06-19T11:24:10;95149.88;;;24.39;47.66
66486;BME280;53303;47.476;8.084;2023-06-19T11:26:46;95153.22;;;24.37;47.59
66486;BME280;53303;47.476;8.084;2023-06-19T11:29:30;95141.97;;;24.29;47.81
66486;BME280;53303;47.476;8.084;2023-06-19T11:32:13;95152.78;;;24.33;47.82
66486;BME280;53303;47.476;8.084;2023-06-19T11:34:39;95132.88;;;24.29;47.87
66486;BME280;53303;47.476;8.084;2023-06-19T11:37:20;95122.38;;;24.22;47.73
66486;BME280;53303;47.476;8.084;2023-06-19T11:39:49;95126.88;;;24.25;47.66
66486;BME280;53303;47.476;8.084;2023-06-19T11:42:18;95102.06;;;24.13;47.58
66486;BME280;53303;47.476;8.084;2023-06-19T11:47:19;95119.66;;;24.29;47.62
66486;BME280;53303;47.476;8.084;2023-06-19T11:49:47;95114.75;;;24.22;47.73
66486;BME280;53303;47.476;8.084;2023-06-19T11:52:13;95128.66;;;24.36;47.70
66486;BME280;53303;47.476;8.084;2023-06-19T11:54:39;95127.56;;;24.39;47.72
66486;BME280;53303;47.476;8.084;2023-06-19T11:57:08;95108.66;;;24.24;47.73
66486;BME280;53303;47.476;8.084;2023-06-19T11:59:38;95097.97;;;24.14;47.75
66486;BME280;53303;47.476;8.084;2023-06-19T12:02:03;95098.72;;;24.15;47.65
66486;BME280;53303;47.476;8.084;2023-06-19T12:04:29;95122.34;;;24.35;47.83
66486;BME280;53303;47.476;8.084;2023-06-19T12:06:56;95099.88;;;24.20;47.86
66486;BME280;53303;47.476;8.084;2023-06-19T12:09:24;95118.03;;;24.34;47.71
66486;BME280;53303;47.476;8.084;2023-06-19T12:11:52;95124.56;;;24.37;47.71
66486;BME280;53303;47.476;8.084;2023-06-19T12:14:17;95099.88;;;24.20;47.57
66486;BME280;53303;47.476;8.084;2023-06-19T12:16:47;95111.53;;;24.31;47.85
66486;BME280;53303;47.476;8.084;2023-06-19T12:19:15;95101.44;;;24.28;47.28
66486;BME280;53303;47.476;8.084;2023-06-19T12:21:40;95101.06;;;24.24;47.61
66486;BME280;53303;47.476;8.084;2023-06-19T12:24:05;95107.78;;;24.29;47.83
66486;BME280;53303;47.476;8.084;2023-06-19T12:26:32;95107.78;;;24.29;47.68
66486;BME280;53303;47.476;8.084;2023-06-19T12:29:04;95119.75;;;24.37;47.69
66486;BME280;53303;47.476;8.084;2023-06-19T12:31:33;95112.31;;;24.40;47.64
66486;BME280;53303;47.476;8.084;2023-06-19T12:33:59;95116.06;;;24.42;47.89
66486;BME280;53303;47.476;8.084;2023-06-19T12:36:27;95115.84;;;24.40;47.59
66486;BME280;53303;47.476;8.084;2023-06-19T12:38:53;95114.78;;;24.43;47.55
66486;BME280;53303;47.476;8.084;2023-06-19T12:41:24;95090.31;;;24.28;47.64
66486;BME280;53303;47.476;8.084;2023-06-19T12:43:52;95105.59;;;24.35;47.83
66486;BME280;53303;47.476;8.084;2023-06-19T12:46:19;95093.34;;;24.38;47.82
66486;BME280;53303;47.476;8.084;2023-06-19T12:48:46;95093.69;;;24.35;47.87
66486;BME280;53303;47.476;8.084;2023-06-19T12:51:18;95104.16;;;24.42;47.99
66486;BME280;53303;47.476;8.084;2023-06-19T12:53:44;95088.31;;;24.37;47.77
66486;BME280;53303;47.476;8.084;2023-06-19T12:56:11;95094.44;;;24.35;47.87
66486;BME280;53303;47.476;8.084;2023-06-19T12:58:37;95113.50;;;24.44;47.92
66486;BME280;53303;47.476;8.084;2023-06-19T13:01:02;95093.69;;;24.35;47.84
66486;BME280;53303;47.476;8.084;2023-06-19T13:03:28;95068.28;;;24.17;47.62
66486;BME280;53303;47.476;8.084;2023-06-19T13:05:53;95099.53;;;24.44;47.84
66486;BME280;53303;47.476;8.084;2023-06-19T13:08:23;95083.06;;;24.33;47.45
66486;BME280;53303;47.476;8.084;2023-06-19T13:10:49;95093.97;;;24.44;47.79
66486;BME280;53303;47.476;8.084;2023-06-19T13:13:18;95085.41;;;24.42;47.86
66486;BME280;53303;47.476;8.084;2023-06-19T13:15:46;95061.88;;;24.30;47.67
66486;BME280;53303;47.476;8.084;2023-06-19T13:18:12;95083.00;;;24.46;47.73